createdAt,value
2024-01-24T00:01:04.615Z,5.48
2024-01-24T00:05:07.383Z,5.65
2024-01-24T00:09:09.087Z,5.50
2024-01-24T00:13:11.995Z,5.43
2024-01-24T00:17:13.694Z,5.47
2024-01-24T00:21:15.648Z,5.34
2024-01-24T00:25:17.500Z,5.29
2024-01-24T00:29:20.462Z,5.11
2024-01-24T00:33:23.131Z,4.95
2024-01-24T00:37:24.879Z,4.88
2024-01-24T00:41:26.366Z,4.81
2024-01-24T00:45:29.272Z,4.69
2024-01-24T00:49:32.334Z,4.59
2024-01-24T00:53:34.915Z,4.64
2024-01-24T00:57:37.004Z,4.60
2024-01-24T01:01:39.949Z,4.65
2024-01-24T01:05:44.533Z,4.68
2024-01-24T01:09:46.169Z,4.70
2024-01-24T01:13:49.150Z,4.79
2024-01-24T01:17:52.030Z,4.79
2024-01-24T01:21:53.681Z,4.79
2024-01-24T01:25:55.234Z,4.81
2024-01-24T01:29:56.759Z,4.80
2024-01-24T01:33:59.727Z,4.81
2024-01-24T01:38:01.371Z,5.01
2024-01-24T01:42:04.057Z,4.99
2024-01-24T01:46:07.749Z,4.87
2024-01-24T01:50:14.268Z,5.12
2024-01-24T01:54:17.022Z,5.13
2024-01-24T01:58:18.735Z,5.47
2024-01-24T02:02:20.682Z,5.28
2024-01-24T02:06:23.891Z,5.40
2024-01-24T02:10:25.482Z,5.50
2024-01-24T02:14:28.062Z,5.39
2024-01-24T02:18:29.573Z,5.52
2024-01-24T02:22:32.596Z,5.50
2024-01-24T02:26:35.972Z,5.40
2024-01-24T02:30:37.532Z,5.68
2024-01-24T02:34:39.281Z,5.93
2024-01-24T02:38:40.955Z,6.03
2024-01-24T02:42:43.872Z,6.09
2024-01-24T02:46:45.470Z,6.40
2024-01-24T02:50:47.035Z,6.42
2024-01-24T02:54:48.656Z,6.54
2024-01-24T02:58:51.653Z,6.51
2024-01-24T03:02:53.194Z,6.49
2024-01-24T03:06:54.850Z,6.60
2024-01-24T03:10:56.452Z,6.79
2024-01-24T03:14:59.385Z,6.89
2024-01-24T03:19:01.070Z,6.93
2024-01-24T03:23:05.456Z,6.96
2024-01-24T03:27:07.357Z,7.02
2024-01-24T03:31:10.373Z,7.37
2024-01-24T03:35:11.988Z,7.41
2024-01-24T03:39:13.559Z,7.63
2024-01-24T03:43:15.110Z,7.49
2024-01-24T03:47:18.062Z,7.52
2024-01-24T03:51:19.700Z,7.67
2024-01-24T03:55:21.518Z,8.14
2024-01-24T03:59:23.092Z,7.89
2024-01-24T04:03:26.096Z,8.04
2024-01-24T04:07:30.578Z,8.05
2024-01-24T04:11:34.334Z,8.10
2024-01-24T04:15:35.984Z,8.14
2024-01-24T04:19:40.286Z,8.03
2024-01-24T04:23:42.019Z,8.30
2024-01-24T04:27:43.659Z,8.23
2024-01-24T04:31:45.234Z,8.34
2024-01-24T04:35:48.136Z,8.54
2024-01-24T04:39:49.656Z,8.56
2024-01-24T04:43:51.220Z,8.59
2024-01-24T04:47:52.952Z,8.48
2024-01-24T04:51:55.939Z,8.54
2024-01-24T04:55:57.486Z,8.49
2024-01-24T05:00:00.165Z,8.53
2024-01-24T05:04:02.427Z,8.49
2024-01-24T05:08:05.819Z,8.50
2024-01-24T05:12:07.492Z,8.52
2024-01-24T05:16:09.102Z,8.61
2024-01-24T05:20:11.923Z,8.64
2024-01-24T05:24:14.963Z,8.60
2024-01-24T05:28:16.629Z,8.64
2024-01-24T05:32:18.199Z,8.74
2024-01-24T05:36:19.763Z,8.83
2024-01-24T05:40:25.234Z,8.94
2024-01-24T05:44:27.399Z,8.97
2024-01-24T05:48:29.232Z,9.09
2024-01-24T05:52:30.840Z,9.18
2024-01-24T05:56:33.891Z,9.24
2024-01-24T06:00:35.571Z,9.25
2024-01-24T06:04:37.343Z,9.37
2024-01-24T06:08:39.021Z,9.29
2024-01-24T06:12:42.017Z,9.29
2024-01-24T06:16:43.550Z,9.51
2024-01-24T06:20:45.453Z,9.63
2024-01-24T06:24:48.044Z,9.68
2024-01-24T06:28:51.170Z,9.85
2024-01-24T06:32:53.189Z,9.87
2024-01-24T06:36:55.135Z,9.88
2024-01-24T06:40:56.906Z,9.96
2024-01-24T06:44:59.797Z,10.00
2024-01-24T06:49:01.445Z,9.94
2024-01-24T06:53:03.085Z,10.19
2024-01-24T06:57:05.206Z,10.20
2024-01-24T07:01:08.277Z,10.35
2024-01-24T07:05:09.960Z,10.31
2024-01-24T07:09:11.534Z,10.29
2024-01-24T07:13:14.398Z,10.17
2024-01-24T07:17:17.508Z,10.16
2024-01-24T07:21:19.179Z,10.18
2024-01-24T07:25:20.978Z,10.46
2024-01-24T07:29:25.670Z,10.52
2024-01-24T07:33:28.892Z,10.62
2024-01-24T07:37:30.536Z,10.29
2024-01-24T07:41:34.262Z,10.27
2024-01-24T07:45:35.871Z,10.48
2024-01-24T07:49:39.592Z,10.15
2024-01-24T07:53:41.323Z,9.75
2024-01-24T07:57:43.008Z,9.84
2024-01-24T08:01:45.307Z,9.97
2024-01-24T08:05:48.353Z,10.09
2024-01-24T08:09:51.201Z,10.05
2024-01-24T08:13:52.820Z,10.05
2024-01-24T08:17:55.025Z,10.01
2024-01-24T08:21:58.199Z,10.11
2024-01-24T08:25:59.898Z,10.16
2024-01-24T08:30:01.624Z,10.31
2024-01-24T08:34:03.368Z,10.47
2024-01-24T08:38:06.393Z,10.56
2024-01-24T08:42:08.137Z,10.35
2024-01-24T08:46:09.816Z,10.20
2024-01-24T08:50:11.933Z,10.03
2024-01-24T08:54:15.031Z,9.54
2024-01-24T08:58:16.589Z,9.09
2024-01-24T09:02:18.226Z,9.23
2024-01-24T09:06:19.889Z,9.07
2024-01-24T09:10:22.954Z,9.11
2024-01-24T09:14:24.889Z,9.32
2024-01-24T09:18:27.359Z,9.34
2024-01-24T09:22:29.062Z,9.20
2024-01-24T09:26:32.189Z,9.25
2024-01-24T09:30:33.741Z,9.47
2024-01-24T09:34:35.505Z,10.04
2024-01-24T09:38:37.448Z,10.40
2024-01-24T09:42:42.533Z,10.60
2024-01-24T09:46:44.192Z,10.71
2024-01-24T09:50:46.758Z,10.92
2024-01-24T09:54:48.428Z,11.28
2024-01-24T09:58:51.284Z,11.62
2024-01-24T10:02:53.018Z,11.89
2024-01-24T10:06:54.911Z,11.97
2024-01-24T10:10:56.665Z,11.87
2024-01-24T10:14:59.674Z,11.95
2024-01-24T10:19:01.360Z,12.14
2024-01-24T10:23:03.217Z,12.23
2024-01-24T10:27:05.554Z,12.10
2024-01-24T10:31:10.018Z,11.92
2024-01-24T10:35:12.040Z,10.72
2024-01-24T10:39:17.550Z,9.51
2024-01-24T10:43:21.337Z,9.27
2024-01-24T10:47:25.301Z,9.13
2024-01-24T10:51:28.730Z,9.24
2024-01-24T10:55:32.504Z,9.17
2024-01-24T10:59:36.523Z,9.17
2024-01-24T11:03:40.367Z,9.20
2024-01-24T11:07:48.979Z,9.09
2024-01-24T11:11:54.411Z,9.28
2024-01-24T11:15:56.827Z,9.59
2024-01-24T11:20:00.011Z,9.63
2024-01-24T11:24:01.646Z,9.69
2024-01-24T11:28:03.459Z,9.70
2024-01-24T11:32:10.388Z,9.74
2024-01-24T11:40:27.004Z,9.84
2024-01-24T11:44:29.850Z,9.94
2024-01-24T11:48:34.272Z,9.97
2024-01-24T11:52:36.457Z,10.07
2024-01-24T11:56:39.770Z,10.13
2024-01-24T12:00:41.930Z,10.10
2024-01-24T12:04:44.046Z,10.35
2024-01-24T12:08:48.219Z,10.28
2024-01-24T12:12:54.540Z,10.15
2024-01-24T12:16:56.576Z,9.88
2024-01-24T12:21:03.362Z,9.75
2024-01-24T12:25:07.557Z,9.66
2024-01-24T12:29:11.592Z,10.13
2024-01-24T12:33:16.116Z,10.18
2024-01-24T12:37:20.918Z,10.02
2024-01-24T12:41:23.686Z,9.96
2024-01-24T12:45:28.303Z,9.95
2024-01-24T12:49:30.870Z,9.89
2024-01-24T12:53:33.320Z,10.01
2024-01-24T12:57:36.654Z,9.96
2024-01-24T13:01:40.777Z,10.24
2024-01-24T13:05:47.171Z,10.11
2024-01-24T13:09:56.018Z,10.15
2024-01-24T13:14:00.449Z,10.25
2024-01-24T13:18:04.482Z,10.37
2024-01-24T13:22:06.539Z,10.39
2024-01-24T13:26:08.853Z,10.46
2024-01-24T13:30:11.758Z,10.51
2024-01-24T13:34:15.638Z,10.50
2024-01-24T13:38:17.744Z,10.34
2024-01-24T13:42:19.549Z,10.32
2024-01-24T13:46:21.636Z,10.11
2024-01-24T13:50:25.221Z,9.96
2024-01-24T13:54:27.435Z,9.83
2024-01-24T13:58:29.703Z,9.75
2024-01-24T14:02:31.822Z,9.56
2024-01-24T14:06:35.400Z,9.30
2024-01-24T14:10:37.941Z,9.09
2024-01-24T14:14:40.007Z,9.28
2024-01-24T14:18:44.899Z,9.31
2024-01-24T14:22:48.158Z,9.38
2024-01-24T14:26:50.197Z,9.36
2024-01-24T14:30:52.292Z,9.40
2024-01-24T14:34:54.431Z,9.35
2024-01-24T14:38:58.019Z,9.40
2024-01-24T14:43:00.401Z,9.35
2024-01-24T14:47:02.056Z,9.37
2024-01-24T14:51:04.091Z,9.29
2024-01-24T14:55:08.244Z,9.31
2024-01-24T14:59:09.930Z,9.27
2024-01-24T15:03:11.654Z,9.34
2024-01-24T15:07:13.489Z,9.31
2024-01-24T15:11:16.621Z,9.10
2024-01-24T15:15:18.561Z,9.03
2024-01-24T15:19:20.594Z,8.96
2024-01-24T15:23:22.349Z,8.74
2024-01-24T15:27:25.927Z,8.67
2024-01-24T15:31:27.780Z,8.46
2024-01-24T15:35:29.381Z,8.48
2024-01-24T15:39:31.407Z,8.56
2024-01-24T15:43:34.453Z,8.67
2024-01-24T15:47:36.307Z,8.68
2024-01-24T15:51:38.020Z,8.70
2024-01-24T15:55:39.814Z,8.69
2024-01-24T15:59:43.003Z,8.55
2024-01-24T16:03:45.213Z,8.55
2024-01-24T16:07:47.078Z,8.64
2024-01-24T16:11:48.672Z,8.70
2024-01-24T16:15:52.398Z,8.70
2024-01-24T16:19:54.065Z,8.58
2024-01-24T16:23:55.707Z,8.67
2024-01-24T16:27:57.541Z,8.87
2024-01-24T16:32:00.500Z,8.83
2024-01-24T16:36:02.642Z,8.91
2024-01-24T16:40:04.826Z,8.88
2024-01-24T16:44:06.510Z,8.83
2024-01-24T16:48:09.685Z,8.89
2024-01-24T16:52:11.394Z,8.90
2024-01-24T16:56:13.033Z,8.84
2024-01-24T17:00:15.205Z,8.86
2024-01-24T17:04:18.304Z,8.89
2024-01-24T17:08:19.899Z,8.78
2024-01-24T17:12:21.460Z,8.76
2024-01-24T17:16:23.058Z,8.74
2024-01-24T17:20:26.031Z,8.84
2024-01-24T17:24:27.776Z,8.85
2024-01-24T17:28:29.380Z,8.79
2024-01-24T17:32:31.154Z,8.76
2024-01-24T17:36:34.397Z,8.71
2024-01-24T17:40:35.991Z,8.60
2024-01-24T17:44:38.090Z,8.62
2024-01-24T17:48:40.118Z,8.54
2024-01-24T17:52:43.862Z,8.53
2024-01-24T17:56:46.148Z,8.51
2024-01-24T18:00:48.261Z,8.46
2024-01-24T18:04:50.292Z,8.41
2024-01-24T18:08:54.153Z,8.13
2024-01-24T18:12:56.722Z,7.57
2024-01-24T18:16:58.821Z,7.61
2024-01-24T18:21:00.930Z,7.46
2024-01-24T18:25:04.971Z,7.03
2024-01-24T18:29:06.840Z,6.92
2024-01-24T18:33:08.987Z,6.96
2024-01-24T18:37:11.200Z,7.23
2024-01-24T18:41:16.423Z,7.35
2024-01-24T18:45:18.722Z,7.40
2024-01-24T18:49:20.867Z,7.44
2024-01-24T18:53:23.041Z,7.64
2024-01-24T18:57:26.677Z,7.63
2024-01-24T19:01:29.105Z,7.43
2024-01-24T19:05:37.255Z,7.37
2024-01-24T19:09:41.713Z,7.41
2024-01-24T19:13:45.562Z,7.58
2024-01-24T19:17:47.754Z,7.49
2024-01-24T19:21:49.933Z,7.66
2024-01-24T19:25:52.944Z,7.70
2024-01-24T19:29:56.370Z,7.69
2024-01-24T19:33:58.427Z,7.72
2024-01-24T19:38:00.892Z,7.69
2024-01-24T19:42:03.079Z,7.68
2024-01-24T19:46:07.159Z,7.63
2024-01-24T19:50:09.996Z,7.58
2024-01-24T19:54:11.899Z,7.57
2024-01-24T19:58:14.029Z,7.52
2024-01-24T20:02:17.312Z,7.60
2024-01-24T20:06:19.360Z,7.65
2024-01-24T20:10:21.556Z,7.49
2024-01-24T20:14:23.307Z,7.49
2024-01-24T20:18:26.861Z,7.43
2024-01-24T20:22:28.861Z,7.33
2024-01-24T20:26:30.897Z,7.00
2024-01-24T20:30:33.237Z,6.62
2024-01-24T20:34:36.526Z,6.40
2024-01-24T20:38:38.571Z,6.32
2024-01-24T20:42:40.105Z,6.15
2024-01-24T20:46:41.802Z,5.84
2024-01-24T20:50:45.760Z,5.84
2024-01-24T20:54:47.332Z,5.68
2024-01-24T20:58:48.954Z,5.56
2024-01-24T21:02:50.458Z,5.51
2024-01-24T21:06:53.446Z,5.63
2024-01-24T21:10:59.991Z,5.59
2024-01-24T21:15:05.639Z,5.66
2024-01-24T21:19:07.190Z,5.76
2024-01-24T21:23:10.137Z,5.80
2024-01-24T21:27:11.776Z,5.90
2024-01-24T21:31:13.382Z,6.03
2024-01-24T21:35:14.909Z,6.08
2024-01-24T21:39:17.776Z,6.18
2024-01-24T21:43:19.302Z,6.25
2024-01-24T21:47:20.820Z,6.40
2024-01-24T21:51:22.362Z,6.45
2024-01-24T21:55:25.205Z,6.46
2024-01-24T21:59:26.712Z,6.59
2024-01-24T22:03:28.296Z,6.54
2024-01-24T22:07:29.907Z,6.53
2024-01-24T22:11:35.404Z,6.52
2024-01-24T22:15:37.328Z,6.48
2024-01-24T22:19:39.488Z,6.25
2024-01-24T22:23:41.392Z,6.29
2024-01-24T22:27:44.747Z,6.34
2024-01-24T22:31:47.484Z,6.47
2024-01-24T22:35:49.752Z,6.53
2024-01-24T22:39:53.155Z,6.44
2024-01-24T22:43:56.616Z,6.45
2024-01-24T22:47:58.679Z,6.50
2024-01-24T22:52:00.675Z,6.55
2024-01-24T22:56:02.784Z,6.60
2024-01-24T23:00:07.952Z,6.55
2024-01-24T23:04:09.900Z,6.57
2024-01-24T23:08:12.031Z,6.56
2024-01-24T23:12:14.109Z,6.53
2024-01-24T23:16:17.826Z,6.59
2024-01-24T23:20:20.029Z,6.60
2024-01-24T23:24:21.962Z,6.49
2024-01-24T23:28:24.373Z,6.36
2024-01-24T23:32:28.388Z,6.31
2024-01-24T23:36:30.561Z,6.52
2024-01-24T23:40:32.610Z,6.48
2024-01-24T23:44:34.656Z,6.47
2024-01-24T23:48:38.299Z,6.52
2024-01-24T23:52:41.078Z,6.55
2024-01-24T23:56:43.047Z,6.60
